This is the latest recevied weather packets stored in our database for station/object K0TNT-10. If no packets are shown the sender has not sent any weather packets the latest 10 day(s).
| Time | Temp. | Humidity | Pressure | Rain* | Wind** | Luminosity | Snow |
|---|---|---|---|---|---|---|---|
| 1777518016 | 10° C | 80% | 1019.7 hPa | 0 mm | - | - | - |
| 1777517152 | 10° C | 78% | 1019.5 hPa | 0 mm | - | - | - |
| 1777516235 | 10.56° C | 75% | 1019.3 hPa | 0 mm | - | - | - |
| 1777511739 | 14.44° C | 60% | 1018.5 hPa | 0 mm | - | - | - |
| 1777507224 | 17.78° C | 47% | 1018.4 hPa | 0 mm | - | - | - |
| 1777504502 | 17.78° C | 47% | 1018.4 hPa | 0 mm | - | - | - |
| 1777500921 | 17.78° C | 46% | 1018.5 hPa | 0 mm | - | - | - |
| 1777495522 | 16.67° C | 50% | 1019.5 hPa | 0 mm | - | - | - |
| 1777492863 | 16.67° C | 51% | 1020.3 hPa | 0 mm | - | - | - |
| 1777483854 | 15.56° C | 56% | 1021.9 hPa | 0 mm | - | - | - |
| 1777480222 | 15.56° C | 57% | 1022.7 hPa | 0 mm | - | - | - |
| 1777476657 | 12.78° C | 65% | 1022.6 hPa | 0 mm | - | - | - |
| 1777465834 | 5.56° C | 91% | 1022.5 hPa | 0 mm | - | - | - |
| 1777458632 | 5.56° C | 92% | 1021.7 hPa | 0 mm | - | - | - |
| 1777455934 | 5° C | 92% | 1021.2 hPa | 0 mm | - | - | - |
| 1777453251 | 5.56° C | 91% | 1020.7 hPa | 0 mm | - | - | - |
| 1777446034 | 6.11° C | 88% | 1020 hPa | 0 mm | - | - | - |
| 1777441527 | 6.67° C | 87% | 1020.1 hPa | 0 mm | - | - | - |
| 1777438852 | 7.22° C | 85% | 1019.9 hPa | 0 mm | - | - | - |
| 1777437955 | 7.78° C | 86% | 1019.8 hPa | 0 mm | - | - | - |
| 1777436139 | 8.33° C | 83% | 1019.9 hPa | 0 mm | - | - | - |
| 1777435224 | 8.33° C | 83% | 1019.9 hPa | 0 mm | - | - | - |
| 1777430719 | 8.89° C | 78% | 1019.6 hPa | 0 mm | - | - | - |
| 1777429820 | 8.89° C | 76% | 1019.8 hPa | 0 mm | - | - | - |
| 1777426250 | 10° C | 72% | 1018.3 hPa | 0 mm | - | - | - |
* Rain latest hour (hover to see other rain measurements)
** Current wind speed in m/s (hover to see current wind gust speed)